Grass Lake, Minnesota
Current Conditions -  °F | °C
As of 10:56 AM on Thursday 23 Oct 2014 (Local Time) from KCBG Reporting Station
Haze Haze  
Wind Chill: 55°   Ceiling: 800
Heat Index: 55°   Visibility: 4mi
Dew Point: 48°   Wind: 3mph
Humidity: 77%   Direction: 220°SW
Pressure: 29.98"   Gusts: NA
Location:  45.71°N, 93.2632°W
Report Text: KCBG 231556Z AUTO 22003KT 4SM HZ OVC008 13/09 A2998 RMK AO2
Loading
Personal Weather Stations






























Interactive Weather Map
Tropical Storm Tracking
New forecast layout! Learn more

10-Day Weather Forecast

Advertisements
Track Severe Weather on mobile